Time;durP1;ratioP1;P1;durP2;ratioP2;P2;SDS_P1;SDS_P2;PMS_P1;PMS_P2;Temp;Humidity;BMP_temperature;BMP_pressure;BME280_temperature;BME280_humidity;BME280_pressure;Samples;Min_cycle;Max_cycle;Signal;HPM_P1;HPM_P2
2021/11/26 00:01:14;;;;;;;61.42;29.13;;;3.80;99.90;;;;;;5055283;28;20228;-83
2021/11/26 00:03:41;;;;;;;53.47;29.17;;;3.80;99.90;;;;;;5055436;28;20226;-83
2021/11/26 00:06:08;;;;;;;47.65;24.02;;;3.70;99.90;;;;;;5054973;28;20289;-83
2021/11/26 00:08:35;;;;;;;51.10;23.50;;;3.80;99.90;;;;;;5058985;28;20225;-83
2021/11/26 00:11:02;;;;;;;59.35;27.33;;;3.80;99.90;;;;;;5056587;28;20304;-83
2021/11/26 00:13:32;;;;;;;52.75;27.13;;;3.80;99.90;;;;;;5054764;28;20301;-84
2021/11/26 00:16:05;;;;;;;52.63;27.63;;;3.60;99.90;;;;;;5055157;28;20561;-83
2021/11/26 00:18:35;;;;;;;53.72;28.10;;;3.80;99.90;;;;;;5055016;28;20724;-83
2021/11/26 00:21:02;;;;;;;56.38;30.17;;;4.10;99.90;;;;;;5060352;28;20556;-82
2021/11/26 00:23:29;;;;;;;54.90;25.83;;;3.90;99.90;;;;;;5059205;28;20632;-83
2021/11/26 00:25:56;;;;;;;50.42;26.92;;;4.10;99.90;;;;;;5060589;28;20248;-84
2021/11/26 00:28:23;;;;;;;50.92;28.23;;;4.10;99.90;;;;;;5060508;28;20609;-83
2021/11/26 00:30:51;;;;;;;56.40;27.10;;;4.00;99.90;;;;;;5060164;28;20206;-81
2021/11/26 00:33:22;;;;;;;55.97;29.13;;;3.80;99.90;;;;;;5060563;28;20214;-82
2021/11/26 00:35:49;;;;;;;49.60;28.35;;;3.80;99.90;;;;;;5067663;28;20186;-82
2021/11/26 00:38:16;;;;;;;49.38;27.67;;;3.80;99.90;;;;;;5068450;28;20229;-83
2021/11/26 00:40:44;;;;;;;50.25;27.58;;;4.00;99.90;;;;;;5065667;28;20233;-82
2021/11/26 00:43:11;;;;;;;57.13;29.85;;;3.90;99.90;;;;;;5064445;28;20306;-82
2021/11/26 00:45:38;;;;;;;51.58;27.88;;;3.90;99.90;;;;;;5064935;28;20301;-82
2021/11/26 00:48:05;;;;;;;50.65;25.75;;;3.80;99.90;;;;;;5067829;28;20237;-83
2021/11/26 00:50:35;;;;;;;55.97;28.77;;;4.00;99.90;;;;;;5069110;28;20296;-82
2021/11/26 00:53:02;;;;;;;52.63;26.65;;;3.80;99.90;;;;;;5064371;28;20210;-83
2021/11/26 00:55:29;;;;;;;65.10;27.50;;;3.80;99.90;;;;;;5067043;28;20202;-82
2021/11/26 00:57:56;;;;;;;50.08;25.23;;;3.80;99.90;;;;;;5071384;28;20250;-83
2021/11/26 01:00:24;;;;;;;48.88;25.45;;;3.90;99.90;;;;;;5066181;28;20230;-83
2021/11/26 01:02:51;;;;;;;50.33;26.05;;;3.70;99.90;;;;;;5065042;28;20210;-83
2021/11/26 01:05:18;;;;;;;54.15;26.45;;;4.00;99.90;;;;;;5063352;28;20250;-82
2021/11/26 01:07:46;;;;;;;51.60;27.67;;;4.00;99.90;;;;;;5062677;28;20253;-82
2021/11/26 01:10:16;;;;;;;53.85;26.23;;;3.90;99.90;;;;;;5068174;28;20206;-82
2021/11/26 01:12:43;;;;;;;53.08;25.90;;;4.40;99.90;;;;;;5064556;28;20244;-83
2021/11/26 01:15:11;;;;;;;51.38;24.70;;;4.30;99.90;;;;;;5062955;28;20225;-83
2021/11/26 01:17:41;;;;;;;52.63;26.80;;;3.90;99.90;;;;;;5064845;28;20229;-83
2021/11/26 01:20:12;;;;;;;51.75;22.65;;;4.10;99.90;;;;;;5070135;28;20206;-83
2021/11/26 01:22:38;;;;;;;58.72;27.77;;;4.20;99.90;;;;;;5066890;28;20225;-83
2021/11/26 01:25:09;;;;;;;48.70;27.23;;;4.00;99.90;;;;;;5059328;28;20225;-82
2021/11/26 01:27:36;;;;;;;56.85;27.08;;;4.20;99.90;;;;;;5060526;28;20226;-83
2021/11/26 01:30:10;;;;;;;55.90;27.25;;;3.90;99.90;;;;;;5066039;28;20296;-83
2021/11/26 01:32:37;;;;;;;51.83;25.48;;;3.80;99.90;;;;;;5065721;28;20221;-84
2021/11/26 01:35:05;;;;;;;49.00;24.55;;;3.90;99.90;;;;;;5059534;28;20209;-83
2021/11/26 01:37:32;;;;;;;51.55;25.75;;;3.90;99.90;;;;;;5060923;28;20252;-83
2021/11/26 01:39:59;;;;;;;51.05;25.48;;;3.90;99.90;;;;;;5058799;28;20240;-83
2021/11/26 01:42:27;;;;;;;49.45;24.98;;;3.70;99.90;;;;;;5058961;28;20249;-83
2021/11/26 01:44:54;;;;;;;55.70;27.85;;;3.70;99.90;;;;;;5058872;28;20257;-83
2021/11/26 01:47:21;;;;;;;49.30;27.17;;;3.90;99.90;;;;;;5058313;28;20230;-83
2021/11/26 01:49:48;;;;;;;50.38;26.17;;;3.80;99.90;;;;;;5059318;28;20221;-83
2021/11/26 01:52:15;;;;;;;51.47;28.27;;;3.70;99.90;;;;;;5058746;28;20289;-84
2021/11/26 01:54:42;;;;;;;52.35;27.60;;;3.60;99.90;;;;;;5059581;28;20670;-83
2021/11/26 01:57:09;;;;;;;57.35;27.70;;;3.80;99.90;;;;;;5060030;28;20216;-83
2021/11/26 01:59:37;;;;;;;53.10;25.90;;;3.80;99.90;;;;;;5058457;28;20212;-83
2021/11/26 02:02:04;;;;;;;51.63;26.90;;;3.90;99.90;;;;;;5058520;28;20221;-83
2021/11/26 02:04:31;;;;;;;50.65;26.13;;;4.00;99.90;;;;;;5059234;28;20313;-84
2021/11/26 02:06:58;;;;;;;57.55;29.17;;;3.90;99.90;;;;;;5061967;28;20208;-83
2021/11/26 02:09:25;;;;;;;49.95;25.17;;;3.70;99.90;;;;;;5059767;28;20229;-83
2021/11/26 02:11:51;;;;;;;53.78;27.27;;;4.00;99.90;;;;;;5059503;28;20281;-83
2021/11/26 02:14:18;;;;;;;47.65;27.00;;;4.00;99.90;;;;;;5058505;28;20202;-83
2021/11/26 02:16:49;;;;;;;53.55;26.40;;;4.00;99.90;;;;;;5058203;28;20210;-83
2021/11/26 02:19:16;;;;;;;50.20;26.98;;;3.80;99.90;;;;;;5057070;28;20222;-83
2021/11/26 02:21:45;;;;;;;53.42;28.35;;;3.70;99.90;;;;;;5056202;28;20206;-82
2021/11/26 02:24:12;;;;;;;55.00;27.50;;;3.60;99.90;;;;;;5069664;28;20258;-82
2021/11/26 02:26:42;;;;;;;43.15;24.00;;;3.60;99.90;;;;;;5071661;28;20206;-82
2021/11/26 02:29:09;;;;;;;45.92;25.48;;;3.90;99.90;;;;;;5071500;28;20234;-82
2021/11/26 02:31:36;;;;;;;48.55;27.63;;;4.00;99.90;;;;;;5071440;28;20206;-83
2021/11/26 02:34:04;;;;;;;45.80;25.70;;;3.90;99.90;;;;;;5057566;28;20206;-83
2021/11/26 02:36:31;;;;;;;49.60;25.77;;;3.70;99.90;;;;;;5057623;28;20206;-83
2021/11/26 02:39:00;;;;;;;48.28;23.40;;;3.80;99.90;;;;;;5065740;28;20232;-83
2021/11/26 02:41:27;;;;;;;46.67;23.38;;;4.20;99.90;;;;;;5060617;28;20232;-83
2021/11/26 02:43:54;;;;;;;40.92;22.85;;;3.80;99.90;;;;;;5072940;28;20209;-83
2021/11/26 02:46:21;;;;;;;48.38;23.42;;;3.80;99.90;;;;;;5059788;28;20225;-83
2021/11/26 02:48:48;;;;;;;42.97;23.70;;;4.20;99.90;;;;;;5056429;28;20242;-84
2021/11/26 02:51:15;;;;;;;44.38;24.27;;;4.00;99.90;;;;;;5055286;28;20206;-84
2021/11/26 02:53:42;;;;;;;41.72;22.00;;;4.00;99.90;;;;;;5057321;28;20206;-84
2021/11/26 02:56:10;;;;;;;41.95;22.40;;;4.10;99.90;;;;;;5057941;28;20198;-81
2021/11/26 02:58:37;;;;;;;42.85;21.38;;;4.10;99.90;;;;;;5064795;28;20592;-82
2021/11/26 03:01:05;;;;;;;41.72;24.05;;;4.00;99.90;;;;;;5055771;28;20210;-83
2021/11/26 03:03:32;;;;;;;43.45;22.60;;;3.60;99.90;;;;;;5055458;28;20206;-83
2021/11/26 03:06:01;;;;;;;41.40;22.38;;;3.70;99.90;;;;;;5059295;28;20217;-83
2021/11/26 03:08:28;;;;;;;44.45;23.20;;;3.80;99.90;;;;;;5064581;28;20702;-83
2021/11/26 03:10:55;;;;;;;45.17;26.70;;;3.60;99.90;;;;;;5058657;28;20292;-83
2021/11/26 03:13:25;;;;;;;46.03;22.45;;;3.70;99.90;;;;;;5068839;28;20206;-83
2021/11/26 03:15:52;;;;;;;42.15;23.70;;;3.90;99.90;;;;;;5056746;28;20245;-83
2021/11/26 03:18:19;;;;;;;48.60;25.67;;;3.90;99.90;;;;;;5066096;28;20234;-82
2021/11/26 03:20:47;;;;;;;50.00;26.00;;;4.00;99.90;;;;;;5065275;28;20210;-82
2021/11/26 03:23:15;;;;;;;50.47;25.70;;;3.80;99.90;;;;;;5060664;28;20205;-83
2021/11/26 03:25:42;;;;;;;47.13;22.48;;;3.70;99.90;;;;;;5055491;28;20222;-83
2021/11/26 03:28:09;;;;;;;50.45;28.08;;;3.90;99.90;;;;;;5055665;28;20229;-83
2021/11/26 03:30:38;;;;;;;47.97;23.30;;;3.80;99.90;;;;;;5060138;28;20210;-83
2021/11/26 03:33:05;;;;;;;52.63;27.50;;;3.50;99.90;;;;;;5056657;28;20271;-83
2021/11/26 03:35:32;;;;;;;43.38;24.95;;;3.70;99.90;;;;;;5055113;28;20206;-83
2021/11/26 03:38:00;;;;;;;47.30;24.70;;;3.80;99.90;;;;;;5057324;28;20226;-83
2021/11/26 03:40:28;;;;;;;46.65;24.85;;;3.90;99.90;;;;;;5074200;28;20284;-83
2021/11/26 03:42:57;;;;;;;48.55;25.42;;;3.90;99.90;;;;;;5061270;28;20202;-82
2021/11/26 03:45:27;;;;;;;47.92;26.20;;;3.90;99.90;;;;;;5054689;28;20225;-83
2021/11/26 03:47:56;;;;;;;49.25;27.17;;;3.80;99.90;;;;;;5054932;28;20234;-84
2021/11/26 03:50:23;;;;;;;47.60;25.10;;;3.80;99.90;;;;;;5056091;28;20227;-81
2021/11/26 03:52:50;;;;;;;53.75;29.10;;;3.60;99.90;;;;;;5054548;28;20651;-83
2021/11/26 03:55:20;;;;;;;51.13;28.58;;;3.50;99.90;;;;;;5083093;22;20263;-77
2021/11/26 03:57:47;;;;;;;49.42;26.23;;;3.40;99.90;;;;;;5077660;28;20228;-78
2021/11/26 04:00:16;;;;;;;48.55;25.10;;;3.60;99.90;;;;;;5083284;28;20268;-78
2021/11/26 04:02:45;;;;;;;49.97;23.75;;;3.70;99.90;;;;;;5083475;28;20292;-78
2021/11/26 04:05:13;;;;;;;49.40;26.13;;;3.80;99.90;;;;;;5079463;28;20226;-78
2021/11/26 04:07:40;;;;;;;49.35;25.75;;;4.10;99.90;;;;;;5082795;28;20209;-77
2021/11/26 04:10:10;;;;;;;47.70;25.73;;;4.00;99.90;;;;;;5074753;28;20206;-77
2021/11/26 04:12:36;;;;;;;49.40;26.88;;;4.30;99.90;;;;;;5076128;28;20208;-77
2021/11/26 04:15:06;;;;;;;51.97;25.75;;;4.20;99.90;;;;;;5077067;28;20223;-77
2021/11/26 04:17:33;;;;;;;49.35;26.55;;;4.00;99.90;;;;;;5079576;28;20209;-79
2021/11/26 04:20:00;;;;;;;54.67;27.63;;;4.10;99.90;;;;;;5076935;28;20215;-77
2021/11/26 04:22:28;;;;;;;49.42;28.13;;;4.10;99.90;;;;;;5077748;28;20205;-78
2021/11/26 04:24:55;;;;;;;50.47;27.50;;;3.90;99.90;;;;;;5078879;28;20233;-77
2021/11/26 04:27:22;;;;;;;47.88;25.65;;;3.70;99.90;;;;;;5078528;28;20545;-77
2021/11/26 04:29:49;;;;;;;53.58;26.70;;;3.80;99.90;;;;;;5076620;28;20205;-78
2021/11/26 04:32:16;;;;;;;49.40;27.63;;;3.70;99.90;;;;;;5077599;28;20220;-77
2021/11/26 04:34:43;;;;;;;52.05;26.08;;;3.70;99.90;;;;;;5075716;28;20228;-77
2021/11/26 04:37:10;;;;;;;58.00;29.15;;;3.80;99.90;;;;;;5077511;28;20206;-77
2021/11/26 04:39:38;;;;;;;51.67;26.58;;;3.60;99.90;;;;;;5078442;28;20210;-77
2021/11/26 04:42:05;;;;;;;54.95;28.15;;;3.60;99.90;;;;;;5077116;28;20205;-76
2021/11/26 04:44:32;;;;;;;54.72;26.92;;;3.40;99.90;;;;;;5077687;28;20225;-77
2021/11/26 04:46:59;;;;;;;48.88;26.50;;;3.60;99.90;;;;;;5080000;28;20320;-78
2021/11/26 04:49:25;;;;;;;53.67;27.55;;;3.40;99.90;;;;;;5079522;28;20674;-78
2021/11/26 04:51:52;;;;;;;57.15;28.92;;;3.60;99.90;;;;;;5078866;28;20209;-78
2021/11/26 04:54:19;;;;;;;52.08;25.15;;;3.50;99.90;;;;;;5078714;28;20238;-78
2021/11/26 04:56:47;;;;;;;49.20;26.85;;;3.60;99.90;;;;;;5082034;28;20224;-78
2021/11/26 04:59:14;;;;;;;51.03;27.25;;;3.60;99.90;;;;;;5080977;28;20235;-78
2021/11/26 05:01:41;;;;;;;47.50;26.88;;;3.70;99.90;;;;;;5078195;28;20653;-78
2021/11/26 05:04:08;;;;;;;53.83;28.38;;;3.80;99.90;;;;;;5079875;28;20763;-77
2021/11/26 05:06:36;;;;;;;54.20;26.05;;;3.60;99.90;;;;;;5077922;28;20231;-78
2021/11/26 05:09:05;;;;;;;52.42;28.38;;;3.90;99.90;;;;;;5077915;28;20214;-78
2021/11/26 05:11:32;;;;;;;55.20;28.58;;;3.80;99.90;;;;;;5078419;28;20674;-78
2021/11/26 05:14:02;;;;;;;49.42;26.67;;;3.70;99.90;;;;;;5083989;28;20233;-78
2021/11/26 05:16:29;;;;;;;48.67;26.38;;;3.70;99.90;;;;;;5082135;28;20248;-78
2021/11/26 05:18:56;;;;;;;52.72;27.95;;;3.90;99.90;;;;;;5082356;28;20202;-77
2021/11/26 05:21:23;;;;;;;55.58;28.88;;;3.90;99.90;;;;;;5081400;28;20225;-77
2021/11/26 05:23:50;;;;;;;49.88;27.85;;;3.80;99.90;;;;;;5082852;28;20225;-78
2021/11/26 05:26:17;;;;;;;60.30;30.48;;;3.80;99.90;;;;;;5078612;28;20221;-77
2021/11/26 05:28:44;;;;;;;51.63;28.13;;;3.80;99.90;;;;;;5077857;28;20283;-77
2021/11/26 05:31:12;;;;;;;55.70;27.80;;;4.30;99.90;;;;;;5077809;28;20206;-77
2021/11/26 05:33:38;;;;;;;55.70;28.85;;;4.30;99.90;;;;;;5076058;28;20197;-77
2021/11/26 05:36:05;;;;;;;51.72;25.30;;;4.10;99.90;;;;;;5076883;28;20685;-78
2021/11/26 05:38:32;;;;;;;46.28;26.55;;;4.10;99.90;;;;;;5077604;28;20673;-77
2021/11/26 05:40:59;;;;;;;55.38;28.48;;;4.20;99.90;;;;;;5076064;28;20576;-77
2021/11/26 05:43:25;;;;;;;47.40;24.52;;;4.30;99.90;;;;;;5074371;28;20681;-77
2021/11/26 05:45:52;;;;;;;53.30;25.95;;;4.10;99.90;;;;;;5076884;28;20592;-77
2021/11/26 05:48:20;;;;;;;51.25;27.77;;;4.20;99.90;;;;;;5078109;28;20209;-78
2021/11/26 05:50:47;;;;;;;50.50;25.33;;;4.30;99.90;;;;;;5074839;28;20228;-77
2021/11/26 05:53:14;;;;;;;50.53;26.42;;;4.20;99.90;;;;;;5074680;28;20202;-77
2021/11/26 05:55:41;;;;;;;52.42;26.73;;;4.30;99.90;;;;;;5074345;28;20229;-77
2021/11/26 05:58:08;;;;;;;48.47;26.52;;;4.30;99.90;;;;;;5077260;28;20307;-78
2021/11/26 06:00:36;;;;;;;46.65;26.00;;;4.00;99.90;;;;;;5079727;28;20209;-78
2021/11/26 06:03:04;;;;;;;48.75;25.02;;;4.10;99.90;;;;;;5080964;28;20216;-77
2021/11/26 06:05:32;;;;;;;46.03;25.05;;;4.20;99.90;;;;;;5074179;28;20233;-77
2021/11/26 06:07:59;;;;;;;43.95;23.10;;;3.90;99.90;;;;;;5075222;28;20580;-78
2021/11/26 06:10:26;;;;;;;46.08;22.55;;;4.10;99.90;;;;;;5076454;28;20209;-77
2021/11/26 06:12:53;;;;;;;50.30;25.23;;;4.20;99.90;;;;;;5077063;28;20212;-77
2021/11/26 06:15:22;;;;;;;46.90;26.42;;;3.90;99.90;;;;;;5076506;28;20693;-77
2021/11/26 06:17:49;;;;;;;44.50;25.05;;;4.10;99.90;;;;;;5075868;28;20201;-77
2021/11/26 06:20:17;;;;;;;44.65;25.42;;;4.10;99.90;;;;;;5074958;28;20321;-76
2021/11/26 06:22:46;;;;;;;44.75;25.23;;;4.10;99.90;;;;;;5075830;28;20213;-78
2021/11/26 06:25:15;;;;;;;41.75;22.38;;;4.20;99.90;;;;;;5077362;28;20253;-78
2021/11/26 06:27:43;;;;;;;45.95;24.10;;;4.30;99.90;;;;;;5075820;28;20312;-78
2021/11/26 06:30:12;;;;;;;49.45;24.73;;;4.40;99.90;;;;;;5076404;28;20217;-78
2021/11/26 06:32:39;;;;;;;49.70;26.17;;;4.40;99.90;;;;;;5080046;28;20217;-77
2021/11/26 06:35:07;;;;;;;42.83;23.35;;;4.60;99.90;;;;;;5076623;28;20719;-77
2021/11/26 06:37:34;;;;;;;42.05;22.80;;;4.50;99.90;;;;;;5078309;28;20205;-78
2021/11/26 06:40:02;;;;;;;38.85;22.58;;;4.10;99.90;;;;;;5074483;28;20358;-78
2021/11/26 06:42:29;;;;;;;41.70;22.35;;;4.30;99.90;;;;;;5076933;28;20213;-76
2021/11/26 06:44:56;;;;;;;43.63;24.17;;;4.50;99.90;;;;;;5076227;28;20232;-78
2021/11/26 06:47:22;;;;;;;44.17;23.45;;;4.40;99.90;;;;;;5074898;28;20221;-77
2021/11/26 06:49:49;;;;;;;43.78;24.73;;;4.40;99.90;;;;;;5073265;28;20213;-78
2021/11/26 06:52:16;;;;;;;49.38;26.63;;;4.30;99.90;;;;;;5075228;28;20208;-77
2021/11/26 06:54:43;;;;;;;44.90;24.15;;;4.30;99.90;;;;;;5074742;28;20237;-78
2021/11/26 06:57:11;;;;;;;49.30;25.52;;;4.30;99.90;;;;;;5076912;28;20264;-77
2021/11/26 06:59:38;;;;;;;40.05;23.70;;;4.10;99.90;;;;;;5082604;28;20285;-77
2021/11/26 07:02:06;;;;;;;47.90;27.40;;;4.20;99.90;;;;;;5082227;28;20360;-78
2021/11/26 07:04:33;;;;;;;42.72;23.52;;;4.20;99.90;;;;;;5078467;28;20225;-77
2021/11/26 07:06:59;;;;;;;44.35;21.27;;;4.20;99.90;;;;;;5080575;28;20599;-77
2021/11/26 07:09:27;;;;;;;41.15;22.83;;;4.00;99.90;;;;;;5079193;28;20209;-78
2021/11/26 07:11:53;;;;;;;47.00;24.83;;;4.10;99.90;;;;;;5078834;28;20217;-78
2021/11/26 07:14:21;;;;;;;40.78;21.95;;;4.00;99.90;;;;;;5075158;28;20221;-78
2021/11/26 07:16:48;;;;;;;48.08;25.67;;;4.10;99.90;;;;;;5078469;28;20570;-78
2021/11/26 07:19:15;;;;;;;42.70;24.13;;;4.00;99.90;;;;;;5075270;28;20241;-77
2021/11/26 07:21:44;;;;;;;46.92;24.95;;;4.00;99.90;;;;;;5073415;28;20213;-76
2021/11/26 07:24:10;;;;;;;45.90;23.27;;;4.00;99.90;;;;;;5073109;28;20257;-76
2021/11/26 07:26:37;;;;;;;46.03;24.98;;;4.10;99.90;;;;;;5073431;28;20331;-76
2021/11/26 07:29:04;;;;;;;49.60;25.88;;;4.20;99.90;;;;;;5073797;28;20268;-76
2021/11/26 07:31:32;;;;;;;41.70;24.25;;;4.20;99.90;;;;;;5073378;28;20205;-78
2021/11/26 07:33:59;;;;;;;46.35;24.77;;;4.10;99.90;;;;;;5074464;28;20577;-78
2021/11/26 07:36:28;;;;;;;52.22;25.52;;;4.00;99.90;;;;;;5074421;28;20204;-77
2021/11/26 07:38:55;;;;;;;45.30;22.63;;;4.10;99.90;;;;;;5077676;28;20325;-76
2021/11/26 07:41:22;;;;;;;55.92;23.90;;;4.20;99.90;;;;;;5073776;28;20212;-78
2021/11/26 07:43:49;;;;;;;49.83;24.98;;;4.30;99.90;;;;;;5074009;28;20222;-78
2021/11/26 07:46:15;;;;;;;49.78;24.10;;;4.60;99.90;;;;;;5075256;28;20224;-77
2021/11/26 07:48:44;;;;;;;49.10;26.52;;;4.70;99.90;;;;;;5078059;28;20210;-78
2021/11/26 07:51:11;;;;;;;41.97;22.25;;;4.40;99.90;;;;;;5079244;28;20204;-78
2021/11/26 07:53:38;;;;;;;47.70;26.10;;;4.40;99.90;;;;;;5078301;28;20236;-78
2021/11/26 07:56:05;;;;;;;45.45;24.90;;;4.20;99.90;;;;;;5080052;28;20212;-78
2021/11/26 07:58:31;;;;;;;43.13;23.70;;;4.30;99.90;;;;;;5079067;28;20205;-77
2021/11/26 08:00:58;;;;;;;44.20;24.75;;;4.50;99.90;;;;;;5077292;28;20322;-76
2021/11/26 08:03:25;;;;;;;42.17;23.05;;;4.50;99.90;;;;;;5077348;28;20209;-78
2021/11/26 08:05:56;;;;;;;43.92;23.42;;;4.50;99.90;;;;;;5077538;28;20583;-78
2021/11/26 08:08:22;;;;;;;46.30;24.80;;;4.60;99.90;;;;;;5077638;28;20206;-77
2021/11/26 08:10:49;;;;;;;48.10;25.08;;;4.60;99.90;;;;;;5077258;28;20217;-77
2021/11/26 08:13:16;;;;;;;50.45;26.08;;;4.60;99.90;;;;;;5078031;28;20206;-77
2021/11/26 08:15:43;;;;;;;46.47;25.55;;;4.40;99.90;;;;;;5077376;28;20230;-80
2021/11/26 08:18:13;;;;;;;43.60;23.65;;;4.30;99.90;;;;;;5076985;28;20212;-77
2021/11/26 08:20:40;;;;;;;44.15;23.10;;;4.40;99.90;;;;;;5080072;28;20201;-77
2021/11/26 08:23:09;;;;;;;48.80;26.05;;;4.40;99.90;;;;;;5079215;28;20725;-77
2021/11/26 08:25:37;;;;;;;50.60;26.35;;;4.50;99.90;;;;;;5077391;28;20594;-78
2021/11/26 08:28:04;;;;;;;48.17;23.20;;;4.50;99.90;;;;;;5079447;28;20229;-79
2021/11/26 08:30:31;;;;;;;44.85;25.02;;;4.50;99.90;;;;;;5084007;28;20229;-78
2021/11/26 08:32:58;;;;;;;46.97;24.90;;;4.50;99.90;;;;;;5082787;28;20211;-78
2021/11/26 08:35:25;;;;;;;41.15;21.83;;;4.50;99.90;;;;;;5075774;28;20273;-77
2021/11/26 08:37:52;;;;;;;54.47;24.70;;;4.40;99.90;;;;;;5075506;28;20201;-77
2021/11/26 08:40:21;;;;;;;38.75;22.15;;;4.50;99.90;;;;;;5076209;28;20202;-77
2021/11/26 08:42:48;;;;;;;46.15;24.40;;;4.40;99.90;;;;;;5077273;28;20201;-77
2021/11/26 08:45:17;;;;;;;43.30;22.70;;;4.50;99.90;;;;;;5077503;28;20721;-78
2021/11/26 08:47:44;;;;;;;40.00;22.10;;;4.40;99.90;;;;;;5076567;28;20221;-77
2021/11/26 08:50:14;;;;;;;41.30;22.75;;;4.60;99.90;;;;;;5076404;28;20202;-80
2021/11/26 08:52:42;;;;;;;37.78;22.90;;;4.70;99.90;;;;;;5077484;28;20209;-78
2021/11/26 08:55:12;;;;;;;42.83;21.73;;;4.70;99.90;;;;;;5080520;28;20236;-80
2021/11/26 08:57:43;;;;;;;44.25;23.23;;;4.70;99.90;;;;;;5081804;28;20297;-81
2021/11/26 09:00:11;;;;;;;69.88;27.02;;;4.50;99.90;;;;;;5080288;28;20626;-77
2021/11/26 09:02:38;;;;;;;48.85;25.25;;;4.50;99.90;;;;;;5077578;28;20228;-78
2021/11/26 09:05:06;;;;;;;52.85;27.42;;;4.30;99.90;;;;;;5077992;28;20570;-77
2021/11/26 09:07:33;;;;;;;47.15;22.92;;;4.30;99.90;;;;;;5077708;28;20229;-77
2021/11/26 09:09:59;;;;;;;42.63;23.08;;;4.70;99.90;;;;;;5078218;28;20206;-78
2021/11/26 09:12:28;;;;;;;47.33;26.63;;;4.70;99.90;;;;;;5077202;28;20677;-77
2021/11/26 09:14:57;;;;;;;49.08;26.27;;;4.50;99.90;;;;;;5077067;28;20233;-78
2021/11/26 09:17:24;;;;;;;45.90;24.08;;;4.60;99.90;;;;;;5078453;28;20205;-78
2021/11/26 09:19:50;;;;;;;49.30;24.40;;;4.50;99.90;;;;;;5077996;28;20273;-77
2021/11/26 09:22:17;;;;;;;39.97;24.63;;;4.60;99.90;;;;;;5077469;28;20685;-77
2021/11/26 09:24:44;;;;;;;45.00;25.38;;;4.70;99.90;;;;;;5078460;28;20240;-80
2021/11/26 09:27:11;;;;;;;47.75;24.75;;;4.70;99.90;;;;;;5086765;28;20285;-78
2021/11/26 09:29:41;;;;;;;46.63;24.98;;;4.80;99.90;;;;;;5086081;28;20193;-78
2021/11/26 09:32:09;;;;;;;54.15;27.90;;;4.80;99.90;;;;;;5079926;28;20266;-78
2021/11/26 09:34:36;;;;;;;46.25;23.65;;;4.60;99.90;;;;;;5077248;28;20225;-78
2021/11/26 09:37:03;;;;;;;45.95;26.17;;;4.80;99.90;;;;;;5076602;28;20271;-78
2021/11/26 09:39:30;;;;;;;45.47;24.67;;;4.80;99.90;;;;;;5076386;28;20229;-78
2021/11/26 09:41:57;;;;;;;55.10;26.02;;;4.80;99.90;;;;;;5076515;28;20240;-78
2021/11/26 09:44:24;;;;;;;47.03;25.65;;;4.80;99.90;;;;;;5077463;28;20244;-78
2021/11/26 09:46:54;;;;;;;45.72;24.65;;;4.90;99.90;;;;;;5082480;28;20587;-78
2021/11/26 09:49:23;;;;;;;51.08;26.75;;;4.80;99.90;;;;;;5074829;28;20205;-77
2021/11/26 09:51:50;;;;;;;53.50;27.40;;;4.90;99.90;;;;;;5075841;28;20654;-76
2021/11/26 09:54:17;;;;;;;46.08;25.80;;;4.90;99.90;;;;;;5076319;28;20632;-77
2021/11/26 09:56:44;;;;;;;48.40;26.42;;;4.90;99.90;;;;;;5076027;28;20289;-77
2021/11/26 09:59:11;;;;;;;51.08;26.27;;;4.70;99.90;;;;;;5075607;28;20648;-77
2021/11/26 10:01:39;;;;;;;56.67;28.67;;;4.80;99.90;;;;;;5077289;28;20214;-78
2021/11/26 10:04:16;;;;;;;53.60;28.83;;;4.90;99.90;;;;;;5075660;28;20213;-78
2021/11/26 10:06:44;;;;;;;51.33;27.08;;;5.10;99.90;;;;;;5076343;28;20189;-79
2021/11/26 10:09:18;;;;;;;50.47;27.90;;;5.10;99.90;;;;;;5076868;28;20210;-78
2021/11/26 10:11:47;;;;;;;52.60;28.80;;;5.00;99.90;;;;;;5079407;28;20186;-78
2021/11/26 10:14:20;;;;;;;51.63;28.48;;;5.00;99.90;;;;;;5077659;28;20236;-79
2021/11/26 10:16:49;;;;;;;46.22;26.88;;;4.90;99.90;;;;;;5077025;28;20194;-78
2021/11/26 10:19:16;;;;;;;57.75;32.17;;;4.90;99.90;;;;;;5076504;28;20304;-77
2021/11/26 10:21:45;;;;;;;50.65;27.33;;;5.10;99.90;;;;;;5078544;28;20213;-78
2021/11/26 10:24:17;;;;;;;61.20;28.02;;;5.10;99.90;;;;;;5078219;28;20229;-79
2021/11/26 10:26:52;;;;;;;48.42;26.92;;;5.10;99.90;;;;;;5080330;28;20677;-78
2021/11/26 10:29:29;;;;;;;54.22;27.42;;;5.10;99.90;;;;;;5082005;28;20192;-78
2021/11/26 10:32:13;;;;;;;50.67;27.50;;;5.00;99.90;;;;;;5087499;28;20196;-78
2021/11/26 10:34:42;;;;;;;47.10;25.25;;;5.00;99.90;;;;;;5086387;28;20240;-78
2021/11/26 10:37:23;;;;;;;45.75;25.45;;;5.10;99.90;;;;;;5077462;28;20674;-78
2021/11/26 10:39:50;;;;;;;50.50;25.95;;;5.10;99.90;;;;;;5075435;28;20200;-77
2021/11/26 10:42:27;;;;;;;53.30;27.35;;;4.90;99.90;;;;;;5074366;28;20194;-78
2021/11/26 10:44:58;;;;;;;50.78;27.05;;;5.10;99.90;;;;;;5075621;28;20261;-77
2021/11/26 10:47:36;;;;;;;48.63;25.30;;;4.90;99.90;;;;;;5078879;28;20323;-78
2021/11/26 10:50:34;;;;;;;49.75;25.52;;;5.10;99.90;;;;;;5078851;28;20667;-77
2021/11/26 10:58:39;;;;;;;46.92;25.33;;;5.30;99.90;;;;;;5079307;28;20216;-78
2021/11/26 11:01:10;;;;;;;44.42;25.30;;;5.10;99.90;;;;;;5083664;28;20290;-78
2021/11/26 11:03:37;;;;;;;47.22;26.15;;;5.10;99.90;;;;;;5075449;28;20195;-78
2021/11/26 11:06:04;;;;;;;46.25;25.35;;;5.00;99.90;;;;;;5075704;28;20221;-76
2021/11/26 11:08:32;;;;;;;47.28;25.30;;;5.30;99.90;;;;;;5072280;28;20222;-75
2021/11/26 11:11:05;;;;;;;49.05;25.65;;;5.00;99.90;;;;;;5072242;28;20209;-76
2021/11/26 11:13:32;;;;;;;54.17;23.73;;;5.20;99.90;;;;;;5072734;28;20244;-76
2021/11/26 11:16:06;;;;;;;46.55;23.65;;;5.10;99.90;;;;;;5072873;28;20296;-76
2021/11/26 11:18:33;;;;;;;47.67;26.05;;;5.40;99.90;;;;;;5072310;28;20217;-77
2021/11/26 11:21:00;;;;;;;45.38;25.45;;;5.30;99.90;;;;;;5073448;28;20205;-75
2021/11/26 11:23:27;;;;;;;52.75;26.20;;;5.10;99.90;;;;;;5073061;28;20193;-75
2021/11/26 11:25:58;;;;;;;47.40;27.20;;;5.10;99.90;;;;;;5072700;28;20570;-75
2021/11/26 11:28:26;;;;;;;43.60;24.30;;;5.20;99.90;;;;;;5071755;28;20691;-76
2021/11/26 11:30:54;;;;;;;54.33;26.20;;;4.90;99.90;;;;;;5072480;28;20288;-76
2021/11/26 11:33:22;;;;;;;47.28;24.55;;;5.20;99.90;;;;;;5072198;28;20201;-76
2021/11/26 11:35:50;;;;;;;43.40;23.02;;;5.10;99.90;;;;;;5072541;28;20201;-76
2021/11/26 11:38:18;;;;;;;48.85;25.80;;;5.10;99.90;;;;;;5072372;28;20201;-77
2021/11/26 11:40:48;;;;;;;48.00;24.20;;;5.30;99.90;;;;;;5072414;28;20202;-77
2021/11/26 11:43:19;;;;;;;46.10;24.73;;;5.30;99.90;;;;;;5072835;28;20209;-76
2021/11/26 11:45:58;;;;;;;43.28;24.20;;;5.30;99.90;;;;;;5072789;28;20316;-75
2021/11/26 11:48:26;;;;;;;50.67;23.20;;;5.40;99.90;;;;;;5071850;28;20220;-76
2021/11/26 11:50:53;;;;;;;46.42;23.60;;;5.10;99.90;;;;;;5072080;28;20205;-77
2021/11/26 11:53:29;;;;;;;45.50;24.17;;;5.20;99.90;;;;;;5071879;28;20594;-77
2021/11/26 11:56:07;;;;;;;49.40;23.58;;;5.20;99.90;;;;;;5074046;28;20280;-78
2021/11/26 11:58:46;;;;;;;48.97;24.35;;;5.20;99.90;;;;;;5093949;22;20233;-79
2021/11/26 12:01:22;;;;;;;39.50;22.08;;;5.20;99.90;;;;;;5056447;28;20569;-80
2021/11/26 12:03:50;;;;;;;44.75;22.20;;;5.30;99.90;;;;;;5057630;28;20683;-78
2021/11/26 12:06:17;;;;;;;39.00;21.55;;;5.40;99.90;;;;;;5058435;28;20214;-79
2021/11/26 12:08:46;;;;;;;41.47;21.33;;;5.60;99.90;;;;;;5055677;28;20605;-78
2021/11/26 12:11:24;;;;;;;45.15;23.30;;;5.70;99.90;;;;;;5056004;28;20216;-78
2021/11/26 12:14:03;;;;;;;45.28;24.20;;;5.50;99.90;;;;;;5056693;28;20293;-79
2021/11/26 12:16:31;;;;;;;43.35;23.27;;;5.50;99.90;;;;;;5056809;28;20194;-79
2021/11/26 12:18:57;;;;;;;40.65;21.25;;;5.50;99.90;;;;;;5056451;28;20226;-79
2021/11/26 12:21:28;;;;;;;36.88;22.40;;;5.50;99.90;;;;;;5055350;28;20206;-80
2021/11/26 12:24:08;;;;;;;38.75;21.90;;;5.50;99.90;;;;;;5056578;28;20186;-80
2021/11/26 12:26:50;;;;;;;40.72;22.00;;;5.50;99.90;;;;;;5061458;28;20189;-80
2021/11/26 12:29:21;;;;;;;40.90;22.52;;;5.50;99.90;;;;;;5059430;28;20332;-79
2021/11/26 12:31:49;;;;;;;44.10;23.52;;;5.60;99.90;;;;;;5061997;28;20193;-79
2021/11/26 12:34:18;;;;;;;39.22;20.92;;;5.60;99.90;;;;;;5064554;28;20236;-80
2021/11/26 12:36:48;;;;;;;39.63;21.40;;;5.50;99.90;;;;;;5060978;28;20206;-79
2021/11/26 12:39:19;;;;;;;44.58;23.23;;;5.40;99.90;;;;;;5060021;28;20225;-79
2021/11/26 12:41:47;;;;;;;44.40;24.83;;;5.70;99.90;;;;;;5059812;28;20198;-80
2021/11/26 12:44:33;;;;;;;47.60;24.90;;;5.60;99.90;;;;;;5066139;28;20193;-85
2021/11/26 12:47:06;;;;;;;47.08;22.40;;;5.60;99.90;;;;;;5064752;28;20236;-80